Time;durP1;ratioP1;P1;durP2;ratioP2;P2;SDS_P1;SDS_P2;PMS_P1;PMS_P2;Temp;Humidity;BMP_temperature;BMP_pressure;BME280_temperature;BME280_humidity;BME280_pressure;Samples;Min_cycle;Max_cycle;Signal;HPM_P1;HPM_P2
2022/06/12 00:01:52;;;;;;;5.80;5.10;;;;;;;21.69;53.39;98016.16;5056005;28;20221;-70
2022/06/12 00:04:18;;;;;;;7.97;4.90;;;;;;;21.60;53.72;98019.03;5058064;28;20191;-70
2022/06/12 00:06:43;;;;;;;10.67;5.10;;;;;;;21.57;54.00;98022.06;5049949;28;20215;-70
2022/06/12 00:09:09;;;;;;;6.60;4.90;;;;;;;21.62;53.65;98018.81;5059699;28;20454;-70
2022/06/12 00:11:34;;;;;;;8.77;5.00;;;;;;;21.66;53.41;98021.91;5070362;28;20556;-69
2022/06/12 00:14:02;;;;;;;6.00;5.03;;;;;;;21.59;53.70;98019.22;5054689;28;20222;-70
2022/06/12 00:16:30;;;;;;;4.83;4.33;;;;;;;21.54;53.96;98019.00;5046811;28;20269;-70
2022/06/12 00:18:56;;;;;;;5.47;4.70;;;;;;;21.45;54.04;98013.03;5052739;28;20851;-70
2022/06/12 00:21:22;;;;;;;4.80;4.20;;;;;;;21.47;53.99;98013.66;5053543;28;20540;-71
2022/06/12 00:23:55;;;;;;;6.77;4.37;;;;;;;21.43;54.03;98015.91;5054781;28;20802;-71
2022/06/12 00:26:50;;;;;;;7.97;4.87;;;;;;;21.43;54.21;98018.56;5054387;28;20441;-70
2022/06/12 00:29:27;;;;;;;6.50;4.50;;;;;;;21.38;54.07;98020.22;5061148;28;20850;-70
2022/06/12 00:31:56;;;;;;;7.13;5.07;;;;;;;21.30;54.13;98021.22;5054327;28;20429;-71
2022/06/12 00:34:26;;;;;;;8.97;5.20;;;;;;;21.14;54.57;98017.06;5054485;28;22079;-70
2022/06/12 00:36:53;;;;;;;10.70;5.80;;;;;;;21.08;54.76;98015.19;5057785;28;20431;-70
2022/06/12 00:39:20;;;;;;;5.40;4.90;;;;;;;21.12;54.98;98021.78;5053312;28;20519;-69
2022/06/12 00:41:48;;;;;;;5.67;5.07;;;;;;;21.09;55.08;98011.50;5054590;28;20516;-71
2022/06/12 00:44:17;;;;;;;5.33;4.60;;;;;;;21.14;54.94;98009.88;5054228;28;20421;-69
2022/06/12 00:46:49;;;;;;;5.37;4.70;;;;;;;21.16;54.78;98013.19;5054055;28;20514;-70
2022/06/12 00:49:38;;;;;;;4.47;4.07;;;;;;;21.16;54.66;98012.38;5053253;28;20449;-70
2022/06/12 00:52:21;;;;;;;9.20;4.70;;;;;;;21.06;54.79;98015.41;5054136;28;20483;-71
2022/06/12 00:54:52;;;;;;;6.33;4.20;;;;;;;21.12;54.69;98011.94;5053135;28;20986;-70
2022/06/12 00:57:21;;;;;;;5.70;4.27;;;;;;;21.14;54.62;98015.22;5052567;28;20417;-70
2022/06/12 00:59:49;;;;;;;6.03;3.90;;;;;;;21.07;54.97;98013.56;5052861;28;20458;-71
2022/06/12 01:02:20;;;;;;;6.27;4.50;;;;;;;21.12;54.60;98016.44;5054206;28;20437;-71
2022/06/12 01:07:35;;;;;;;5.07;4.30;;;;;;;21.09;54.78;98006.19;5045790;28;20829;-70
2022/06/12 01:10:02;;;;;;;5.47;4.13;;;;;;;21.13;54.17;98002.91;5053901;28;20457;-71
2022/06/12 01:12:31;;;;;;;4.60;4.00;;;;;;;21.09;54.30;98006.19;5046172;28;20448;-71
2022/06/12 01:15:00;;;;;;;4.97;3.83;;;;;;;21.12;54.38;98005.78;5052952;28;20487;-70
2022/06/12 01:17:27;;;;;;;5.13;4.03;;;;;;;21.10;54.42;97997.16;5052198;28;20418;-71
2022/06/12 01:20:03;;;;;;;5.73;4.70;;;;;;;21.10;54.23;98010.50;5050880;28;20811;-70
2022/06/12 01:22:35;;;;;;;7.10;4.93;;;;;;;21.07;54.47;98008.22;5047535;28;20413;-71
2022/06/12 01:25:19;;;;;;;7.87;4.50;;;;;;;20.98;54.81;98000.41;5053305;28;20428;-70
2022/06/12 01:27:56;;;;;;;4.33;3.93;;;;;;;20.96;54.99;98002.47;5052619;28;20472;-71
2022/06/12 01:30:46;;;;;;;5.80;4.13;;;;;;;20.97;54.75;98001.44;5053872;28;20440;-70
2022/06/12 01:33:36;;;;;;;5.10;4.50;;;;;;;20.92;54.71;97998.53;5052829;28;20433;-70
2022/06/12 01:36:19;;;;;;;5.27;3.90;;;;;;;20.91;54.82;97999.59;5056464;28;20871;-71
2022/06/12 01:39:01;;;;;;;4.87;4.03;;;;;;;20.91;54.93;98006.75;5047064;28;20423;-70
2022/06/12 01:41:35;;;;;;;4.90;3.87;;;;;;;20.92;55.15;97998.53;5052524;28;20421;-70
2022/06/12 01:44:37;;;;;;;6.30;4.17;;;;;;;20.86;54.98;97999.34;5052229;28;20465;-70
2022/06/12 01:47:22;;;;;;;8.70;4.00;;;;;;;20.82;54.92;97995.44;5049619;28;20464;-70
2022/06/12 01:50:08;;;;;;;7.20;4.17;;;;;;;20.79;55.39;98001.19;5052992;28;20799;-71
2022/06/12 01:52:57;;;;;;;4.80;4.30;;;;;;;20.77;55.31;98001.34;5035591;28;20437;-73
2022/06/12 01:55:46;;;;;;;5.60;3.90;;;;;;;20.75;55.42;97992.75;5052083;28;20437;-70
2022/06/12 01:58:22;;;;;;;6.23;3.90;;;;;;;20.71;55.51;97984.31;5052297;28;20513;-70
2022/06/12 02:00:56;;;;;;;4.43;3.90;;;;;;;20.47;55.74;97995.44;5050744;28;20445;-70
2022/06/12 02:03:37;;;;;;;4.20;3.80;;;;;;;20.43;56.36;97987.03;5058544;28;20429;-70
2022/06/12 02:06:09;;;;;;;4.30;3.90;;;;;;;20.41;56.34;97992.53;5051516;28;20421;-70
2022/06/12 02:08:39;;;;;;;4.70;4.10;;;;;;;20.37;56.15;97990.47;5053073;28;20962;-71
2022/06/12 02:14:01;;;;;;;5.73;4.30;;;;;;;20.31;56.63;97988.63;5053281;28;20429;-71
2022/06/12 02:16:32;;;;;;;5.53;4.00;;;;;;;20.29;56.67;97991.44;5043447;28;20475;-70
2022/06/12 02:19:01;;;;;;;7.20;4.17;;;;;;;20.31;56.35;97999.25;5051601;28;20437;-70
2022/06/12 02:21:31;;;;;;;4.33;3.93;;;;;;;20.29;56.70;97994.13;5059760;28;20432;-70
2022/06/12 02:24:16;;;;;;;5.03;4.53;;;;;;;20.27;56.50;97990.84;5051977;28;20958;-70
2022/06/12 02:26:45;;;;;;;7.73;4.83;;;;;;;20.23;56.62;97997.56;5045286;28;20464;-70
2022/06/12 02:29:15;;;;;;;5.53;4.70;;;;;;;20.26;56.56;97997.19;5052568;28;20421;-70
2022/06/12 02:31:44;;;;;;;5.10;4.00;;;;;;;20.23;56.41;97992.25;5051918;28;20428;-70
2022/06/12 02:34:15;;;;;;;4.77;4.10;;;;;;;20.21;56.57;97999.59;5051137;28;20524;-70
2022/06/12 02:36:45;;;;;;;4.67;4.23;;;;;;;20.13;56.53;97999.75;5054447;28;20493;-70
2022/06/12 02:39:21;;;;;;;6.90;4.83;;;;;;;20.05;56.89;97998.06;5050363;28;20426;-70
2022/06/12 02:41:54;;;;;;;5.53;4.33;;;;;;;20.05;57.09;98009.53;5052998;28;20843;-70
2022/06/12 02:44:28;;;;;;;5.73;4.40;;;;;;;20.09;56.60;97994.81;5051607;28;20636;-71
2022/06/12 02:46:57;;;;;;;5.97;5.27;;;;;;;20.00;56.56;97998.66;5052291;28;20544;-71
2022/06/12 02:49:23;;;;;;;6.67;4.70;;;;;;;19.96;56.87;97997.38;5032598;28;20457;-70
2022/06/12 02:51:55;;;;;;;10.00;4.70;;;;;;;19.97;56.85;97996.38;5050812;28;20434;-70
2022/06/12 02:54:44;;;;;;;8.57;4.60;;;;;;;19.98;56.94;97999.84;5050493;28;20207;-70
2022/06/12 02:57:27;;;;;;;5.10;4.13;;;;;;;19.99;56.94;97990.84;5051537;28;20900;-70
2022/06/12 03:00:38;;;;;;;6.60;4.37;;;;;;;19.99;56.96;97998.81;5052323;28;20442;-70
2022/06/12 03:03:14;;;;;;;4.50;4.10;;;;;;;19.94;57.35;97994.09;5035870;28;20428;-70
2022/06/12 03:05:42;;;;;;;4.70;4.30;;;;;;;19.96;57.26;97997.38;5047292;28;20962;-70
2022/06/12 03:08:17;;;;;;;5.90;4.00;;;;;;;19.85;57.31;97992.56;5054525;28;20467;-71
2022/06/12 03:10:50;;;;;;;6.00;4.77;;;;;;;19.89;57.00;97991.22;5040679;28;20540;-70
2022/06/12 03:13:17;;;;;;;4.83;4.10;;;;;;;19.84;57.12;98006.88;5068109;28;20440;-70
2022/06/12 03:15:53;;;;;;;5.10;4.53;;;;;;;19.84;57.43;97989.09;5071177;28;20429;-70
2022/06/12 03:18:25;;;;;;;6.07;4.50;;;;;;;19.82;57.60;97998.25;5055386;28;20512;-70
2022/06/12 03:20:57;;;;;;;5.03;4.53;;;;;;;19.80;57.61;97998.47;5057181;28;20479;-70
2022/06/12 03:23:41;;;;;;;6.43;4.27;;;;;;;19.75;57.73;97999.03;5056554;28;20502;-70
2022/06/12 03:26:10;;;;;;;4.87;4.20;;;;;;;19.67;58.07;97993.84;5067317;28;20467;-70
2022/06/12 03:29:11;;;;;;;7.40;4.37;;;;;;;19.65;57.88;97995.91;5059818;28;20476;-70
2022/06/12 03:31:52;;;;;;;4.80;4.30;;;;;;;19.57;58.05;97999.50;5024609;28;20465;-71
2022/06/12 03:34:17;;;;;;;5.03;4.53;;;;;;;19.55;57.95;97996.22;5069628;28;20501;-70
2022/06/12 03:37:04;;;;;;;6.13;4.80;;;;;;;19.55;57.82;97996.22;5067271;28;20417;-69
2022/06/12 03:39:37;;;;;;;5.83;4.17;;;;;;;19.53;58.05;98002.75;5049143;28;20216;-70
2022/06/12 03:42:10;;;;;;;4.37;3.97;;;;;;;19.58;57.96;97997.66;5057809;28;20480;-70
2022/06/12 03:44:38;;;;;;;5.50;4.53;;;;;;;19.58;57.92;98000.31;5070107;28;20424;-71
2022/06/12 03:47:11;;;;;;;6.77;4.87;;;;;;;19.41;58.46;98005.88;5069330;28;20803;-70
2022/06/12 03:49:43;;;;;;;6.13;5.53;;;;;;;19.47;58.60;98005.13;5059971;28;20492;-70
2022/06/12 03:52:14;;;;;;;5.57;4.47;;;;;;;19.44;58.51;98010.81;5058965;28;20436;-71
2022/06/12 03:54:55;;;;;;;7.43;4.87;;;;;;;19.45;58.45;98012.47;5070986;28;20490;-70
2022/06/12 04:00:38;;;;;;;5.87;4.57;;;;;;;19.52;58.53;98012.53;5069544;28;20516;-69
2022/06/12 04:03:05;;;;;;;5.13;4.57;;;;;;;19.49;58.52;98005.78;5062487;28;20471;-70
2022/06/12 04:05:43;;;;;;;9.67;4.70;;;;;;;19.49;58.64;98005.78;5057498;28;20432;-70
2022/06/12 04:08:13;;;;;;;4.83;4.23;;;;;;;19.46;58.92;98003.50;5068862;28;20866;-70
2022/06/12 04:10:40;;;;;;;5.00;4.50;;;;;;;19.49;59.02;98003.13;5058412;28;20476;-69
2022/06/12 04:13:09;;;;;;;5.83;4.37;;;;;;;19.58;58.61;98003.81;5070148;28;20429;-70
2022/06/12 04:15:36;;;;;;;6.20;4.30;;;;;;;19.59;58.51;98007.28;5055106;28;20835;-70
2022/06/12 04:18:02;;;;;;;5.30;4.50;;;;;;;19.65;58.61;98001.22;5068971;28;20511;-71
2022/06/12 04:20:55;;;;;;;5.97;4.63;;;;;;;19.72;58.29;98004.75;5069449;28;20540;-70
2022/06/12 04:23:57;;;;;;;5.10;4.57;;;;;;;19.82;58.01;98007.09;5061284;28;20191;-70
2022/06/12 04:26:31;;;;;;;9.90;5.07;;;;;;;19.87;58.21;97995.88;5068399;28;20934;-69
2022/06/12 04:29:11;;;;;;;8.70;5.20;;;;;;;19.78;58.21;98001.28;5070588;28;20412;-70
2022/06/12 04:31:38;;;;;;;9.27;5.20;;;;;;;19.78;58.44;98005.81;5063296;28;20482;-70
2022/06/12 04:34:10;;;;;;;6.70;5.20;;;;;;;19.82;58.12;98001.75;5066923;28;20470;-70
2022/06/12 04:36:36;;;;;;;7.13;5.33;;;;;;;19.87;57.99;97999.34;5066905;28;20416;-69
2022/06/12 04:39:03;;;;;;;5.20;4.70;;;;;;;19.91;58.12;97999.81;5068058;28;20449;-70
2022/06/12 04:41:30;;;;;;;8.77;5.20;;;;;;;19.97;58.06;98004.34;5042439;28;20190;-69
2022/06/12 04:43:56;;;;;;;9.07;5.37;;;;;;;19.98;58.03;98003.34;5065912;28;20429;-69
2022/06/12 04:46:22;;;;;;;5.77;5.20;;;;;;;20.03;57.70;98003.59;5069999;28;20443;-70
2022/06/12 04:48:50;;;;;;;7.27;5.10;;;;;;;20.08;57.61;98011.81;5063951;28;20187;-70
2022/06/12 04:51:16;;;;;;;8.80;5.07;;;;;;;19.94;57.73;98007.41;5051367;28;21144;-69
2022/06/12 04:53:42;;;;;;;6.63;5.43;;;;;;;20.04;57.71;98009.72;5072825;28;20428;-70
2022/06/12 04:56:11;;;;;;;6.93;5.40;;;;;;;20.05;57.61;98009.53;5073812;28;20412;-71
2022/06/12 04:58:38;;;;;;;6.57;5.27;;;;;;;20.09;57.71;98008.13;5071572;28;20428;-70
2022/06/12 05:01:04;;;;;;;5.60;5.03;;;;;;;20.18;58.03;98006.16;5059221;28;20448;-70
2022/06/12 05:03:29;;;;;;;8.73;5.43;;;;;;;20.29;57.79;98007.41;5067069;28;20894;-70
2022/06/12 05:05:56;;;;;;;7.70;4.97;;;;;;;20.36;57.61;98010.97;5074114;28;20515;-69
2022/06/12 05:08:22;;;;;;;7.57;4.90;;;;;;;20.42;57.56;98012.81;5064609;28;20211;-69
2022/06/12 05:10:47;;;;;;;5.77;5.17;;;;;;;20.49;57.68;98017.38;5042916;28;20480;-70
2022/06/12 05:13:13;;;;;;;8.00;4.80;;;;;;;20.59;57.34;98007.19;5051895;28;20191;-70
2022/06/12 05:15:39;;;;;;;5.40;4.90;;;;;;;20.64;57.16;98012.75;5054176;28;20278;-69
2022/06/12 05:18:04;;;;;;;5.73;5.13;;;;;;;20.75;57.35;98002.59;5047799;28;20521;-69
2022/06/12 05:20:32;;;;;;;9.80;4.87;;;;;;;20.86;57.58;98007.34;5054315;28;20298;-69
2022/06/12 05:22:58;;;;;;;7.97;5.17;;;;;;;20.99;57.35;98002.06;5054389;28;20191;-70
2022/06/12 05:25:25;;;;;;;6.80;4.80;;;;;;;21.11;56.86;98002.28;5062020;28;20774;-71
2022/06/12 05:27:51;;;;;;;7.40;5.10;;;;;;;21.22;56.88;98011.56;5053402;28;20623;-71
2022/06/12 05:30:20;;;;;;;5.77;4.90;;;;;;;21.35;56.67;98016.09;5054151;28;20514;-70
2022/06/12 05:32:47;;;;;;;5.10;4.30;;;;;;;21.47;56.51;98009.16;5053458;28;20444;-69
2022/06/12 05:35:13;;;;;;;6.57;4.73;;;;;;;21.63;56.24;98009.78;5057388;28;20460;-71
2022/06/12 05:37:39;;;;;;;5.33;4.83;;;;;;;21.75;55.32;98010.03;5057179;28;20432;-71
2022/06/12 05:40:11;;;;;;;7.47;5.00;;;;;;;21.85;55.71;98005.09;5053773;28;20226;-70
2022/06/12 05:42:38;;;;;;;6.87;5.17;;;;;;;21.96;55.57;98006.31;5053658;28;20191;-69
2022/06/12 05:45:09;;;;;;;5.33;4.60;;;;;;;22.06;55.78;98005.88;5053708;28;20436;-70
2022/06/12 05:47:35;;;;;;;5.17;4.63;;;;;;;22.19;55.34;98011.22;5052897;28;20457;-70
2022/06/12 05:50:01;;;;;;;5.77;4.97;;;;;;;22.33;55.38;98013.84;5050001;28;20464;-70
2022/06/12 05:52:26;;;;;;;4.77;4.37;;;;;;;22.45;55.12;98004.22;5053296;28;20222;-70
2022/06/12 05:54:52;;;;;;;6.27;4.47;;;;;;;22.61;54.65;98007.47;5052340;28;20191;-70
2022/06/12 05:57:17;;;;;;;6.17;4.90;;;;;;;22.76;53.78;98009.84;5052290;28;20266;-70
2022/06/12 05:59:43;;;;;;;11.27;4.50;;;;;;;22.91;53.77;98007.75;5053045;28;20715;-70
2022/06/12 06:02:08;;;;;;;5.53;4.40;;;;;;;23.04;53.46;98012.22;5053538;28;20191;-71
2022/06/12 06:04:34;;;;;;;5.67;4.30;;;;;;;23.17;53.24;98006.81;5056018;28;20213;-70
2022/06/12 06:07:00;;;;;;;4.93;4.30;;;;;;;23.32;52.49;98016.41;5053038;28;20237;-70
2022/06/12 06:09:27;;;;;;;4.30;3.90;;;;;;;23.46;52.37;98007.25;5052889;28;20453;-70
2022/06/12 06:11:53;;;;;;;7.37;4.50;;;;;;;23.59;50.98;98014.41;5053580;28;20229;-71
2022/06/12 06:14:19;;;;;;;4.50;4.10;;;;;;;23.75;51.23;98010.34;5053230;28;20425;-69
2022/06/12 06:16:45;;;;;;;8.23;4.50;;;;;;;23.90;50.99;98014.56;5053096;28;20183;-71
2022/06/12 06:19:12;;;;;;;5.60;4.33;;;;;;;24.02;50.46;98018.19;5047728;28;20210;-71
2022/06/12 06:21:39;;;;;;;5.27;3.83;;;;;;;24.12;49.92;98012.34;5053241;28;20428;-71
2022/06/12 06:24:05;;;;;;;5.37;4.40;;;;;;;24.23;49.52;98008.13;5053084;28;20429;-70
2022/06/12 06:26:30;;;;;;;7.73;3.90;;;;;;;24.37;49.43;98014.16;5052809;28;20932;-70
2022/06/12 06:28:57;;;;;;;5.60;3.83;;;;;;;24.51;49.60;98012.16;5066769;28;20190;-71
2022/06/12 06:31:23;;;;;;;5.60;3.60;;;;;;;24.66;49.20;98012.59;5071938;28;20206;-70
2022/06/12 06:33:49;;;;;;;4.90;3.97;;;;;;;24.76;48.53;98013.97;5057253;28;20474;-71
2022/06/12 06:36:15;;;;;;;4.97;3.70;;;;;;;24.92;48.79;98021.41;5056004;28;20456;-70
2022/06/12 06:38:41;;;;;;;5.47;3.90;;;;;;;25.08;48.79;98013.75;5051995;28;20207;-71
2022/06/12 06:41:07;;;;;;;5.80;3.40;;;;;;;25.22;48.40;98007.16;5051353;28;20932;-70
2022/06/12 06:46:13;;;;;;;4.23;3.53;;;;;;;25.38;47.83;98013.78;5052764;28;20429;-70
2022/06/12 06:46:19;;;;;;;4.60;3.83;;;;;;;25.49;46.92;98011.38;5052228;28;20191;-70
2022/06/12 06:48:45;;;;;;;3.27;2.97;;;;;;;25.59;46.85;98020.50;5048367;28;20426;-70
2022/06/12 06:51:10;;;;;;;9.83;3.33;;;;;;;25.70;46.37;98016.22;5051245;28;20446;-70
2022/06/12 06:53:36;;;;;;;3.00;2.80;;;;;;;25.83;45.83;98011.66;5052423;28;20246;-70
2022/06/12 06:56:02;;;;;;;6.33;3.47;;;;;;;25.99;45.99;98013.69;5052319;28;20545;-71
2022/06/12 06:58:30;;;;;;;3.60;3.30;;;;;;;26.15;45.90;98014.06;5044229;28;20175;-70
2022/06/12 07:00:55;;;;;;;4.80;3.13;;;;;;;26.25;44.57;98021.53;5052525;28;20674;-70
2022/06/12 07:03:21;;;;;;;3.80;2.93;;;;;;;26.37;44.82;98014.28;5059373;28;20433;-70
2022/06/12 07:05:48;;;;;;;3.50;3.03;;;;;;;26.48;44.33;98015.31;5051241;28;20241;-69
2022/06/12 07:08:14;;;;;;;9.73;3.20;;;;;;;26.59;44.56;98014.47;5051799;28;20473;-69
2022/06/12 07:10:40;;;;;;;4.50;3.60;;;;;;;26.69;44.56;98013.88;5051488;28;20460;-70
2022/06/12 07:13:06;;;;;;;4.43;3.93;;;;;;;26.86;44.78;98015.84;5051654;28;20433;-70
2022/06/12 07:15:33;;;;;;;7.80;4.20;;;;;;;27.03;45.10;98021.31;5051671;28;20767;-71
2022/06/12 07:17:59;;;;;;;7.33;4.27;;;;;;;27.16;44.11;98015.59;5052417;28;20179;-70
2022/06/12 07:20:28;;;;;;;5.47;3.77;;;;;;;27.26;43.93;98015.81;5034746;28;20452;-70
2022/06/12 07:22:54;;;;;;;5.80;5.13;;;;;;;27.41;44.18;98009.88;5051974;28;20475;-71
2022/06/12 07:25:20;;;;;;;3.87;3.20;;;;;;;27.46;42.15;98016.47;5060087;28;20511;-71
2022/06/12 07:27:46;;;;;;;3.87;3.23;;;;;;;27.55;42.30;98012.31;5051954;28;20203;-71
2022/06/12 07:30:15;;;;;;;4.90;3.77;;;;;;;27.69;42.13;98010.09;5053200;28;20461;-72
2022/06/12 07:32:40;;;;;;;6.57;5.00;;;;;;;27.74;41.26;98011.00;5051531;28;20436;-71
2022/06/12 07:35:06;;;;;;;9.53;4.17;;;;;;;27.85;40.67;98009.28;5054831;28;20433;-70
2022/06/12 07:37:34;;;;;;;4.00;3.60;;;;;;;27.96;40.89;98012.13;5051436;28;20179;-69
2022/06/12 07:40:00;;;;;;;6.27;3.70;;;;;;;28.11;40.67;98011.56;5050535;28;20452;-70
2022/06/12 07:42:26;;;;;;;5.43;3.47;;;;;;;28.20;40.22;98010.91;5050463;28;20430;-70
2022/06/12 07:44:51;;;;;;;3.57;2.83;;;;;;;28.34;39.91;98008.69;5051218;28;20930;-70
2022/06/12 07:47:19;;;;;;;6.03;2.87;;;;;;;28.36;39.16;98001.16;5050338;28;20449;-70
2022/06/12 07:49:45;;;;;;;6.83;3.57;;;;;;;28.38;38.82;97997.41;5046221;28;20207;-69
2022/06/12 07:52:12;;;;;;;6.03;3.10;;;;;;;28.51;39.68;97997.03;5059821;28;20489;-69
2022/06/12 07:54:38;;;;;;;6.47;2.77;;;;;;;28.62;39.06;97996.09;5051581;28;20645;-69
2022/06/12 07:57:05;;;;;;;5.37;3.30;;;;;;;28.78;38.51;97997.16;5051108;28;20433;-71
2022/06/12 07:59:30;;;;;;;5.00;2.90;;;;;;;28.90;38.24;97994.31;5051233;28;20229;-70
2022/06/12 08:01:56;;;;;;;4.63;3.23;;;;;;;29.00;38.42;97992.78;5049310;28;20434;-70
2022/06/12 08:04:22;;;;;;;6.20;3.17;;;;;;;29.03;37.44;97986.88;5058964;28;20665;-70
2022/06/12 08:06:48;;;;;;;8.63;3.23;;;;;;;29.09;36.96;97991.28;5051001;28;20207;-70
2022/06/12 08:09:14;;;;;;;5.40;2.80;;;;;;;29.24;37.68;97983.31;5050856;28;20508;-70
2022/06/12 08:11:41;;;;;;;2.30;2.07;;;;;;;29.36;36.32;97979.69;5050113;28;20265;-70
2022/06/12 08:14:07;;;;;;;8.77;3.17;;;;;;;29.51;36.29;97985.22;5049983;28;20432;-70
2022/06/12 08:16:34;;;;;;;3.37;3.07;;;;;;;29.71;36.71;97987.25;5050077;28;20434;-71
2022/06/12 08:19:00;;;;;;;5.70;3.33;;;;;;;29.82;36.03;97988.16;5047604;28;20202;-71
2022/06/12 08:21:26;;;;;;;5.50;2.87;;;;;;;29.97;35.54;97989.38;5051168;28;20524;-71
2022/06/12 08:23:57;;;;;;;7.80;2.73;;;;;;;29.99;34.53;97987.22;5050048;28;20438;-71
2022/06/12 08:26:28;;;;;;;4.30;2.80;;;;;;;30.09;34.08;97984.59;5050502;28;20452;-70
2022/06/12 08:29:04;;;;;;;3.63;2.77;;;;;;;30.23;34.40;97984.13;5053062;28;21016;-70
2022/06/12 08:31:51;;;;;;;4.03;2.70;;;;;;;30.37;34.38;97985.25;5047338;28;20437;-71
2022/06/12 08:34:42;;;;;;;4.23;3.10;;;;;;;30.55;34.14;97983.22;5053385;28;20445;-71
2022/06/12 08:37:19;;;;;;;3.20;2.53;;;;;;;30.62;34.12;97991.94;5050118;28;20474;-71
2022/06/12 08:39:45;;;;;;;4.80;2.37;;;;;;;30.66;32.60;97979.47;5054676;28;20506;-71
2022/06/12 08:42:16;;;;;;;4.30;3.10;;;;;;;30.80;32.67;97979.81;5055006;28;20418;-71
2022/06/12 08:45:00;;;;;;;4.53;2.37;;;;;;;30.88;31.75;97975.75;5060081;28;20186;-70
2022/06/12 08:47:42;;;;;;;3.90;2.10;;;;;;;30.97;31.13;97976.06;5053707;28;20465;-71
2022/06/12 08:50:20;;;;;;;6.20;3.10;;;;;;;31.13;32.19;97979.66;5051025;28;20492;-71
2022/06/12 08:52:47;;;;;;;3.13;2.83;;;;;;;31.31;31.94;97973.72;5054762;28;20433;-70
2022/06/12 08:55:30;;;;;;;3.97;2.30;;;;;;;31.44;31.21;97971.56;5052818;28;20452;-70
2022/06/12 08:58:18;;;;;;;6.57;2.70;;;;;;;31.58;31.34;97974.53;5053195;28;20425;-71
2022/06/12 09:00:44;;;;;;;4.67;2.90;;;;;;;31.67;31.11;97971.00;5048647;28;20449;-70
2022/06/12 09:03:22;;;;;;;4.10;2.40;;;;;;;31.79;30.58;97969.94;5061488;28;20543;-71
2022/06/12 09:05:52;;;;;;;3.20;2.37;;;;;;;31.49;30.10;97961.53;5054693;28;20475;-69
2022/06/12 09:08:30;;;;;;;4.63;2.60;;;;;;;31.68;30.62;97961.00;5053907;28;20464;-70
2022/06/12 09:11:01;;;;;;;3.13;2.20;;;;;;;31.85;31.05;97960.72;5054542;28;20441;-71
2022/06/12 09:13:30;;;;;;;4.40;2.33;;;;;;;31.64;29.91;97955.28;5053930;28;20413;-71
2022/06/12 09:16:23;;;;;;;4.53;2.20;;;;;;;31.80;29.86;97955.31;5054388;28;20436;-71
2022/06/12 09:19:10;;;;;;;6.80;2.60;;;;;;;31.80;29.75;97952.59;5053658;28;20425;-72
2022/06/12 09:22:13;;;;;;;6.17;2.50;;;;;;;31.99;30.47;97945.53;5048784;28;20425;-71
2022/06/12 09:24:43;;;;;;;4.87;3.70;;;;;;;32.24;30.57;97949.25;5048958;28;20405;-69
2022/06/12 09:27:22;;;;;;;5.80;2.60;;;;;;;32.40;29.91;97950.03;5054338;28;20457;-70
2022/06/12 09:29:51;;;;;;;4.27;2.90;;;;;;;32.62;30.44;97949.69;5054157;28;20492;-71
2022/06/12 09:32:41;;;;;;;3.67;2.60;;;;;;;32.66;29.55;97947.22;5063729;28;20420;-71
2022/06/12 09:35:15;;;;;;;4.83;2.70;;;;;;;32.93;30.58;97946.81;5057603;28;20475;-70
2022/06/12 09:38:20;;;;;;;6.60;2.50;;;;;;;33.12;29.15;97943.44;5054705;28;20465;-71
2022/06/12 09:41:09;;;;;;;2.33;2.13;;;;;;;33.15;27.93;97947.50;5047253;28;20463;-71
2022/06/12 09:44:00;;;;;;;3.87;2.60;;;;;;;33.13;28.29;97938.81;5048498;28;20433;-70
2022/06/12 09:46:34;;;;;;;2.33;2.20;;;;;;;32.81;28.66;97942.81;5055033;28;20418;-70
2022/06/12 09:49:06;;;;;;;5.33;2.47;;;;;;;32.31;28.75;97943.56;5050749;28;20435;-69
2022/06/12 09:51:59;;;;;;;6.27;2.30;;;;;;;32.29;29.55;97941.13;5047494;28;20432;-70
2022/06/12 09:54:39;;;;;;;5.57;2.40;;;;;;;32.53;29.83;97926.91;5053719;28;20421;-71
2022/06/12 09:57:10;;;;;;;3.17;2.17;;;;;;;32.73;29.35;97927.91;5054714;28;20421;-71
2022/06/12 09:59:48;;;;;;;4.20;2.60;;;;;;;33.01;28.50;97920.19;5055048;28;20451;-70
2022/06/12 10:02:20;;;;;;;4.60;2.77;;;;;;;33.24;28.53;97918.63;5055328;28;20794;-71
2022/06/12 10:04:51;;;;;;;3.63;2.30;;;;;;;33.38;28.46;97925.06;5055151;28;20426;-70
2022/06/12 10:07:24;;;;;;;3.73;2.30;;;;;;;33.52;28.46;97917.06;5050302;28;20457;-70
2022/06/12 10:09:56;;;;;;;2.27;2.03;;;;;;;33.72;28.36;97920.69;5053206;28;20437;-70
2022/06/12 10:12:29;;;;;;;3.37;2.60;;;;;;;33.94;27.94;97913.97;5051544;28;20425;-70
2022/06/12 10:15:05;;;;;;;7.40;2.23;;;;;;;34.11;27.19;97906.16;5052030;28;20483;-70
2022/06/12 10:17:44;;;;;;;3.37;2.20;;;;;;;34.25;26.57;97910.91;5045246;28;20435;-70
2022/06/12 10:20:13;;;;;;;2.73;2.30;;;;;;;34.45;27.36;97907.94;5057754;28;20449;-69
2022/06/12 10:22:47;;;;;;;3.53;2.30;;;;;;;34.47;27.27;97904.13;5053940;28;20421;-71
2022/06/12 10:25:27;;;;;;;3.77;2.53;;;;;;;34.38;27.31;97907.47;5053024;28;20528;-71
2022/06/12 10:28:06;;;;;;;2.93;2.50;;;;;;;34.38;27.50;97902.03;5051250;28;20514;-71
2022/06/12 10:30:38;;;;;;;2.60;2.03;;;;;;;34.53;27.44;97897.53;5045409;28;20437;-70
2022/06/12 10:33:21;;;;;;;6.13;2.23;;;;;;;34.66;27.15;97888.63;5052668;28;20484;-70
2022/06/12 10:35:58;;;;;;;3.70;2.73;;;;;;;34.69;26.66;97895.41;5055799;28;20496;-70
2022/06/12 10:38:27;;;;;;;3.10;2.40;;;;;;;34.82;27.11;97894.66;5051011;28;20451;-70
2022/06/12 10:41:01;;;;;;;3.20;2.47;;;;;;;34.54;27.37;97889.06;5059641;28;20449;-70
2022/06/12 10:43:43;;;;;;;2.70;2.30;;;;;;;34.57;28.07;97893.09;5044445;28;20447;-70
2022/06/12 10:46:16;;;;;;;9.43;2.53;;;;;;;34.21;27.63;97896.25;5052580;28;20515;-70
2022/06/12 10:48:43;;;;;;;4.47;2.40;;;;;;;34.03;28.03;97889.69;5051792;28;20472;-70
2022/06/12 10:51:08;;;;;;;3.23;2.40;;;;;;;33.69;27.67;97886.75;5050538;28;20796;-70
2022/06/12 10:53:35;;;;;;;3.93;2.50;;;;;;;33.57;27.51;97878.19;5052510;28;20421;-70
2022/06/12 10:56:03;;;;;;;2.43;2.20;;;;;;;33.35;28.08;97886.81;5051391;28;20193;-70
2022/06/12 10:58:50;;;;;;;3.67;2.40;;;;;;;33.09;28.12;97876.13;5044004;28;20425;-71
2022/06/12 11:01:26;;;;;;;9.33;2.20;;;;;;;32.95;28.24;97870.56;5051841;28;20487;-69
2022/06/12 11:04:00;;;;;;;5.63;2.50;;;;;;;33.11;29.69;97865.81;5057497;28;20483;-70
2022/06/12 11:06:52;;;;;;;4.33;2.20;;;;;;;33.44;28.59;97863.38;5051930;28;20429;-70
2022/06/12 11:09:49;;;;;;;4.93;2.67;;;;;;;33.74;28.00;97858.72;5056847;28;20920;-70
2022/06/12 11:12:39;;;;;;;10.37;1.90;;;;;;;33.95;26.96;97861.22;5050739;28;20465;-69
2022/06/12 11:15:26;;;;;;;3.00;2.00;;;;;;;34.13;25.88;97856.94;5051952;28;20425;-70
2022/06/12 11:18:20;;;;;;;2.93;2.30;;;;;;;34.03;25.61;97857.84;5046616;28;20492;-69
2022/06/12 11:20:54;;;;;;;3.83;2.30;;;;;;;33.98;27.09;97852.50;5045827;28;20437;-69
2022/06/12 11:23:27;;;;;;;5.27;3.30;;;;;;;34.14;26.73;97845.78;5051559;28;20490;-70
2022/06/12 11:26:02;;;;;;;3.20;1.90;;;;;;;34.38;26.41;97842.19;5051622;28;20430;-71
2022/06/12 11:28:46;;;;;;;2.93;2.10;;;;;;;34.56;26.77;97831.63;5041893;28;20484;-70
2022/06/12 11:31:25;;;;;;;3.40;2.10;;;;;;;34.53;25.64;97838.47;5051249;28;20449;-70
2022/06/12 11:34:21;;;;;;;4.30;2.30;;;;;;;34.34;26.65;97827.56;5051177;28;20487;-70
2022/06/12 11:36:53;;;;;;;3.00;2.00;;;;;;;34.21;25.66;97828.28;5053627;28;20820;-70
2022/06/12 11:39:22;;;;;;;4.43;2.20;;;;;;;34.02;26.80;97834.53;5051046;28;20433;-71
2022/06/12 11:42:21;;;;;;;3.97;2.47;;;;;;;33.97;26.72;97821.78;5051361;28;20429;-70
2022/06/12 11:45:05;;;;;;;6.80;2.20;;;;;;;34.11;26.57;97821.88;5046057;28;20848;-70
2022/06/12 11:47:50;;;;;;;5.53;2.30;;;;;;;34.29;26.79;97819.47;5042697;28;20618;-71
2022/06/12 11:50:43;;;;;;;2.80;2.23;;;;;;;34.15;25.99;97820.19;5049883;28;20871;-71
2022/06/12 11:53:18;;;;;;;11.33;2.23;;;;;;;34.04;26.55;97824.13;5051163;28;20523;-71
2022/06/12 11:56:11;;;;;;;3.73;2.10;;;;;;;34.02;26.87;97820.09;5050373;28;20908;-71
2022/06/12 11:59:10;;;;;;;3.10;2.20;;;;;;;34.12;26.11;97818.06;5042902;28;20456;-71
2022/06/12 12:02:15;;;;;;;4.93;2.30;;;;;;;34.32;26.56;97816.16;5044866;28;20453;-71
2022/06/12 12:05:10;;;;;;;6.73;2.10;;;;;;;34.50;26.25;97811.84;5049846;28;20428;-72
2022/06/12 12:07:53;;;;;;;3.73;2.20;;;;;;;34.75;25.71;97810.66;5046502;28;20553;-71
2022/06/12 12:10:34;;;;;;;2.87;2.13;;;;;;;34.97;26.15;97809.25;5050426;28;20869;-71
2022/06/12 12:13:05;;;;;;;4.00;2.10;;;;;;;35.00;25.01;97800.50;5051530;28;20908;-70